sensor_id;sensor_type;location;lat;lon;timestamp;temperature;humidity
27164;DHT22;14685;50.618;7.024;2023-03-01T00:01:32;3.00;99.90
27164;DHT22;14685;50.618;7.024;2023-03-01T00:03:59;3.00;99.90
27164;DHT22;14685;50.618;7.024;2023-03-01T00:06:27;3.00;99.90
27164;DHT22;14685;50.618;7.024;2023-03-01T00:08:56;3.00;99.90
27164;DHT22;14685;50.618;7.024;2023-03-01T00:11:29;3.00;99.90
27164;DHT22;14685;50.618;7.024;2023-03-01T00:13:58;3.20;99.90
27164;DHT22;14685;50.618;7.024;2023-03-01T00:16:31;3.00;99.90
27164;DHT22;14685;50.618;7.024;2023-03-01T00:19:00;3.00;99.90
27164;DHT22;14685;50.618;7.024;2023-03-01T00:21:29;3.00;99.90
27164;DHT22;14685;50.618;7.024;2023-03-01T00:23:56;3.00;99.90
27164;DHT22;14685;50.618;7.024;2023-03-01T00:26:25;3.00;99.90
27164;DHT22;14685;50.618;7.024;2023-03-01T00:28:53;3.00;99.90
27164;DHT22;14685;50.618;7.024;2023-03-01T00:31:22;3.00;99.90
27164;DHT22;14685;50.618;7.024;2023-03-01T00:33:54;2.90;99.90
27164;DHT22;14685;50.618;7.024;2023-03-01T00:36:26;2.90;99.90
27164;DHT22;14685;50.618;7.024;2023-03-01T00:39:03;2.80;99.90
27164;DHT22;14685;50.618;7.024;2023-03-01T00:41:30;2.80;99.90
27164;DHT22;14685;50.618;7.024;2023-03-01T00:43:57;2.80;99.90
27164;DHT22;14685;50.618;7.024;2023-03-01T00:46:26;2.70;99.90
27164;DHT22;14685;50.618;7.024;2023-03-01T00:48:54;2.70;99.90
27164;DHT22;14685;50.618;7.024;2023-03-01T00:51:25;2.70;99.90
27164;DHT22;14685;50.618;7.024;2023-03-01T00:53:54;2.70;99.90
27164;DHT22;14685;50.618;7.024;2023-03-01T00:56:21;2.70;99.90
27164;DHT22;14685;50.618;7.024;2023-03-01T00:58:49;2.70;99.90
27164;DHT22;14685;50.618;7.024;2023-03-01T01:01:35;2.80;99.90
27164;DHT22;14685;50.618;7.024;2023-03-01T01:04:10;2.70;99.90
27164;DHT22;14685;50.618;7.024;2023-03-01T01:06:44;2.80;99.90
27164;DHT22;14685;50.618;7.024;2023-03-01T01:09:14;2.70;99.90
27164;DHT22;14685;50.618;7.024;2023-03-01T01:11:46;2.80;99.90
27164;DHT22;14685;50.618;7.024;2023-03-01T01:14:15;2.70;99.90
27164;DHT22;14685;50.618;7.024;2023-03-01T01:16:43;2.70;99.90
27164;DHT22;14685;50.618;7.024;2023-03-01T01:19:14;2.60;99.90
27164;DHT22;14685;50.618;7.024;2023-03-01T01:21:42;2.60;99.90
27164;DHT22;14685;50.618;7.024;2023-03-01T01:24:11;2.60;99.90
27164;DHT22;14685;50.618;7.024;2023-03-01T01:26:38;2.60;99.90
27164;DHT22;14685;50.618;7.024;2023-03-01T01:29:06;2.50;99.90
27164;DHT22;14685;50.618;7.024;2023-03-01T01:31:35;2.30;99.90
27164;DHT22;14685;50.618;7.024;2023-03-01T01:34:05;2.40;99.90
27164;DHT22;14685;50.618;7.024;2023-03-01T01:36:34;2.30;99.90
27164;DHT22;14685;50.618;7.024;2023-03-01T01:39:01;2.30;99.90
27164;DHT22;14685;50.618;7.024;2023-03-01T01:41:29;2.30;99.90
27164;DHT22;14685;50.618;7.024;2023-03-01T01:44:20;2.30;99.90
27164;DHT22;14685;50.618;7.024;2023-03-01T01:47:00;2.20;99.90
27164;DHT22;14685;50.618;7.024;2023-03-01T01:49:33;2.20;99.90
27164;DHT22;14685;50.618;7.024;2023-03-01T01:52:23;2.20;99.90
27164;DHT22;14685;50.618;7.024;2023-03-01T01:55:08;2.20;99.90
27164;DHT22;14685;50.618;7.024;2023-03-01T01:57:38;2.10;99.90
27164;DHT22;14685;50.618;7.024;2023-03-01T02:00:18;2.10;99.90
27164;DHT22;14685;50.618;7.024;2023-03-01T02:02:47;2.10;99.90
27164;DHT22;14685;50.618;7.024;2023-03-01T02:07:49;2.00;99.90
27164;DHT22;14685;50.618;7.024;2023-03-01T02:10:17;2.00;99.90
27164;DHT22;14685;50.618;7.024;2023-03-01T02:12:45;2.00;99.90
27164;DHT22;14685;50.618;7.024;2023-03-01T02:15:13;2.00;99.90
27164;DHT22;14685;50.618;7.024;2023-03-01T02:17:40;2.00;99.90
27164;DHT22;14685;50.618;7.024;2023-03-01T02:22:54;2.00;99.90
27164;DHT22;14685;50.618;7.024;2023-03-01T02:26:07;2.00;99.90
27164;DHT22;14685;50.618;7.024;2023-03-01T02:28:38;2.00;99.90
27164;DHT22;14685;50.618;7.024;2023-03-01T02:31:08;2.00;99.90
27164;DHT22;14685;50.618;7.024;2023-03-01T02:33:54;2.00;99.90
27164;DHT22;14685;50.618;7.024;2023-03-01T02:36:25;2.00;99.90
27164;DHT22;14685;50.618;7.024;2023-03-01T02:38:59;2.00;99.90
27164;DHT22;14685;50.618;7.024;2023-03-01T02:41:29;2.00;99.90
27164;DHT22;14685;50.618;7.024;2023-03-01T02:43:57;2.00;99.90
27164;DHT22;14685;50.618;7.024;2023-03-01T02:46:26;2.00;99.90
27164;DHT22;14685;50.618;7.024;2023-03-01T02:48:55;1.90;99.90
27164;DHT22;14685;50.618;7.024;2023-03-01T02:56:48;1.90;99.90
27164;DHT22;14685;50.618;7.024;2023-03-01T02:59:26;1.80;99.90
27164;DHT22;14685;50.618;7.024;2023-03-01T03:01:54;1.80;99.90
27164;DHT22;14685;50.618;7.024;2023-03-01T03:04:21;1.80;99.90
27164;DHT22;14685;50.618;7.024;2023-03-01T03:06:50;1.80;99.90
27164;DHT22;14685;50.618;7.024;2023-03-01T03:09:19;1.80;99.90
27164;DHT22;14685;50.618;7.024;2023-03-01T03:11:46;1.70;99.90
27164;DHT22;14685;50.618;7.024;2023-03-01T03:14:16;1.70;99.90
27164;DHT22;14685;50.618;7.024;2023-03-01T03:16:48;1.70;99.90
27164;DHT22;14685;50.618;7.024;2023-03-01T03:19:17;1.70;99.90
27164;DHT22;14685;50.618;7.024;2023-03-01T03:21:46;1.60;99.90
27164;DHT22;14685;50.618;7.024;2023-03-01T03:24:13;1.60;99.90
27164;DHT22;14685;50.618;7.024;2023-03-01T03:26:40;1.60;99.90
27164;DHT22;14685;50.618;7.024;2023-03-01T03:29:08;1.60;99.90
27164;DHT22;14685;50.618;7.024;2023-03-01T03:31:36;1.60;99.90
27164;DHT22;14685;50.618;7.024;2023-03-01T03:34:03;1.60;99.90
27164;DHT22;14685;50.618;7.024;2023-03-01T03:36:30;1.60;99.90
27164;DHT22;14685;50.618;7.024;2023-03-01T03:38:57;1.50;99.90
27164;DHT22;14685;50.618;7.024;2023-03-01T03:41:24;1.50;99.90
27164;DHT22;14685;50.618;7.024;2023-03-01T03:43:51;1.50;99.90
27164;DHT22;14685;50.618;7.024;2023-03-01T03:46:18;1.50;99.90
27164;DHT22;14685;50.618;7.024;2023-03-01T03:48:45;1.40;99.90
27164;DHT22;14685;50.618;7.024;2023-03-01T03:51:14;1.40;99.90
27164;DHT22;14685;50.618;7.024;2023-03-01T03:53:42;1.40;99.90
27164;DHT22;14685;50.618;7.024;2023-03-01T03:56:11;1.40;99.90
27164;DHT22;14685;50.618;7.024;2023-03-01T03:58:39;1.40;99.90
27164;DHT22;14685;50.618;7.024;2023-03-01T04:01:07;1.40;99.90
27164;DHT22;14685;50.618;7.024;2023-03-01T04:03:34;1.40;99.90
27164;DHT22;14685;50.618;7.024;2023-03-01T04:06:02;1.40;99.90
27164;DHT22;14685;50.618;7.024;2023-03-01T04:08:31;1.40;99.90
27164;DHT22;14685;50.618;7.024;2023-03-01T04:11:03;1.30;99.90
27164;DHT22;14685;50.618;7.024;2023-03-01T04:13:52;1.30;99.90
27164;DHT22;14685;50.618;7.024;2023-03-01T04:16:20;1.30;99.90
27164;DHT22;14685;50.618;7.024;2023-03-01T04:18:49;1.30;99.90
27164;DHT22;14685;50.618;7.024;2023-03-01T04:21:19;1.30;99.90
27164;DHT22;14685;50.618;7.024;2023-03-01T04:23:47;1.30;99.90
27164;DHT22;14685;50.618;7.024;2023-03-01T04:26:15;1.30;99.90
27164;DHT22;14685;50.618;7.024;2023-03-01T04:28:43;1.30;99.90
27164;DHT22;14685;50.618;7.024;2023-03-01T04:31:17;1.20;99.90
27164;DHT22;14685;50.618;7.024;2023-03-01T04:36:25;1.20;99.90
27164;DHT22;14685;50.618;7.024;2023-03-01T04:38:55;1.10;99.90
27164;DHT22;14685;50.618;7.024;2023-03-01T04:41:29;1.10;99.90
27164;DHT22;14685;50.618;7.024;2023-03-01T04:44:01;1.10;99.90
27164;DHT22;14685;50.618;7.024;2023-03-01T04:46:30;1.10;99.90
27164;DHT22;14685;50.618;7.024;2023-03-01T04:48:58;1.10;99.90
27164;DHT22;14685;50.618;7.024;2023-03-01T04:51:25;1.10;99.90
27164;DHT22;14685;50.618;7.024;2023-03-01T04:53:52;1.10;99.90
27164;DHT22;14685;50.618;7.024;2023-03-01T04:56:19;1.10;99.90
27164;DHT22;14685;50.618;7.024;2023-03-01T04:58:46;0.90;99.90
27164;DHT22;14685;50.618;7.024;2023-03-01T05:01:16;1.00;99.90
27164;DHT22;14685;50.618;7.024;2023-03-01T05:03:51;1.00;99.90
27164;DHT22;14685;50.618;7.024;2023-03-01T05:06:19;1.00;99.90
27164;DHT22;14685;50.618;7.024;2023-03-01T05:08:46;1.00;99.90
27164;DHT22;14685;50.618;7.024;2023-03-01T05:11:13;0.90;99.90
27164;DHT22;14685;50.618;7.024;2023-03-01T05:13:41;0.90;99.90
27164;DHT22;14685;50.618;7.024;2023-03-01T05:16:09;1.00;99.90
27164;DHT22;14685;50.618;7.024;2023-03-01T05:18:39;0.90;99.90
27164;DHT22;14685;50.618;7.024;2023-03-01T05:21:14;0.90;99.90
27164;DHT22;14685;50.618;7.024;2023-03-01T05:23:44;0.80;99.90
27164;DHT22;14685;50.618;7.024;2023-03-01T05:26:11;0.80;99.90
27164;DHT22;14685;50.618;7.024;2023-03-01T05:28:54;0.80;99.90
27164;DHT22;14685;50.618;7.024;2023-03-01T05:31:26;0.80;99.90
27164;DHT22;14685;50.618;7.024;2023-03-01T05:33:53;0.80;99.90
27164;DHT22;14685;50.618;7.024;2023-03-01T05:36:20;0.80;99.90
27164;DHT22;14685;50.618;7.024;2023-03-01T05:38:47;0.80;99.90
27164;DHT22;14685;50.618;7.024;2023-03-01T05:41:15;0.80;99.90
27164;DHT22;14685;50.618;7.024;2023-03-01T05:43:43;0.80;99.90
27164;DHT22;14685;50.618;7.024;2023-03-01T05:46:11;0.90;99.90
27164;DHT22;14685;50.618;7.024;2023-03-01T05:48:40;0.80;99.90
27164;DHT22;14685;50.618;7.024;2023-03-01T05:51:07;0.90;99.90
27164;DHT22;14685;50.618;7.024;2023-03-01T05:53:34;1.10;99.90
27164;DHT22;14685;50.618;7.024;2023-03-01T05:56:03;1.00;99.90
27164;DHT22;14685;50.618;7.024;2023-03-01T05:58:31;1.00;99.90
27164;DHT22;14685;50.618;7.024;2023-03-01T06:00:58;1.00;99.90
27164;DHT22;14685;50.618;7.024;2023-03-01T06:03:25;1.00;99.90
27164;DHT22;14685;50.618;7.024;2023-03-01T06:05:57;0.90;99.90
27164;DHT22;14685;50.618;7.024;2023-03-01T06:08:24;0.90;99.90
27164;DHT22;14685;50.618;7.024;2023-03-01T06:10:53;0.80;99.90
27164;DHT22;14685;50.618;7.024;2023-03-01T06:13:20;0.80;99.90
27164;DHT22;14685;50.618;7.024;2023-03-01T06:15:47;0.80;99.90
27164;DHT22;14685;50.618;7.024;2023-03-01T06:18:14;0.80;99.90
27164;DHT22;14685;50.618;7.024;2023-03-01T06:20:41;0.80;99.90
27164;DHT22;14685;50.618;7.024;2023-03-01T06:23:08;0.80;99.90
27164;DHT22;14685;50.618;7.024;2023-03-01T06:25:37;0.80;99.90
27164;DHT22;14685;50.618;7.024;2023-03-01T06:28:04;0.80;99.90
27164;DHT22;14685;50.618;7.024;2023-03-01T06:30:31;0.70;99.90
27164;DHT22;14685;50.618;7.024;2023-03-01T06:32:58;0.70;99.90
27164;DHT22;14685;50.618;7.024;2023-03-01T06:35:28;0.70;99.90
27164;DHT22;14685;50.618;7.024;2023-03-01T06:37:57;0.60;99.90
27164;DHT22;14685;50.618;7.024;2023-03-01T06:40:28;0.60;99.90
27164;DHT22;14685;50.618;7.024;2023-03-01T06:42:55;0.60;99.90
27164;DHT22;14685;50.618;7.024;2023-03-01T06:45:22;0.60;99.90
27164;DHT22;14685;50.618;7.024;2023-03-01T06:47:50;0.60;99.90
27164;DHT22;14685;50.618;7.024;2023-03-01T06:50:19;0.60;99.90
27164;DHT22;14685;50.618;7.024;2023-03-01T06:52:46;0.60;99.90
27164;DHT22;14685;50.618;7.024;2023-03-01T06:55:13;0.70;99.90
27164;DHT22;14685;50.618;7.024;2023-03-01T06:57:40;0.90;99.90
27164;DHT22;14685;50.618;7.024;2023-03-01T07:00:07;0.90;99.90
27164;DHT22;14685;50.618;7.024;2023-03-01T07:02:34;0.90;99.90
27164;DHT22;14685;50.618;7.024;2023-03-01T07:05:01;0.90;99.90
27164;DHT22;14685;50.618;7.024;2023-03-01T07:07:28;0.90;99.90
27164;DHT22;14685;50.618;7.024;2023-03-01T07:09:55;0.90;99.90
27164;DHT22;14685;50.618;7.024;2023-03-01T07:12:22;0.90;99.90
27164;DHT22;14685;50.618;7.024;2023-03-01T07:14:49;0.80;99.90
27164;DHT22;14685;50.618;7.024;2023-03-01T07:17:16;0.90;99.90
27164;DHT22;14685;50.618;7.024;2023-03-01T07:19:42;0.90;99.90
27164;DHT22;14685;50.618;7.024;2023-03-01T07:22:11;0.90;99.90
27164;DHT22;14685;50.618;7.024;2023-03-01T07:24:38;1.00;99.90
27164;DHT22;14685;50.618;7.024;2023-03-01T07:27:05;1.20;99.90
27164;DHT22;14685;50.618;7.024;2023-03-01T07:29:34;1.40;99.90
27164;DHT22;14685;50.618;7.024;2023-03-01T07:32:04;1.50;99.90
27164;DHT22;14685;50.618;7.024;2023-03-01T07:34:31;1.60;99.90
27164;DHT22;14685;50.618;7.024;2023-03-01T07:36:58;1.80;99.90
27164;DHT22;14685;50.618;7.024;2023-03-01T07:39:25;2.00;99.90
27164;DHT22;14685;50.618;7.024;2023-03-01T07:41:51;2.20;99.90
27164;DHT22;14685;50.618;7.024;2023-03-01T07:44:19;2.30;99.90
27164;DHT22;14685;50.618;7.024;2023-03-01T07:46:46;2.50;99.90
27164;DHT22;14685;50.618;7.024;2023-03-01T07:49:13;2.60;99.90
27164;DHT22;14685;50.618;7.024;2023-03-01T07:51:40;2.80;99.90
27164;DHT22;14685;50.618;7.024;2023-03-01T07:54:08;2.90;99.90
27164;DHT22;14685;50.618;7.024;2023-03-01T07:56:35;3.10;99.90
27164;DHT22;14685;50.618;7.024;2023-03-01T07:59:02;3.20;99.90
27164;DHT22;14685;50.618;7.024;2023-03-01T08:01:29;3.30;99.90
27164;DHT22;14685;50.618;7.024;2023-03-01T08:03:56;3.40;99.90
27164;DHT22;14685;50.618;7.024;2023-03-01T08:06:23;3.50;99.90
27164;DHT22;14685;50.618;7.024;2023-03-01T08:08:50;3.60;99.90
27164;DHT22;14685;50.618;7.024;2023-03-01T08:11:17;3.60;99.90
27164;DHT22;14685;50.618;7.024;2023-03-01T08:13:44;3.60;99.90
27164;DHT22;14685;50.618;7.024;2023-03-01T08:16:13;3.60;99.90
27164;DHT22;14685;50.618;7.024;2023-03-01T08:18:41;3.70;99.90
27164;DHT22;14685;50.618;7.024;2023-03-01T08:21:14;3.70;99.90
27164;DHT22;14685;50.618;7.024;2023-03-01T08:23:41;3.80;99.90
27164;DHT22;14685;50.618;7.024;2023-03-01T08:26:18;3.90;99.90
27164;DHT22;14685;50.618;7.024;2023-03-01T08:28:46;4.00;99.90
27164;DHT22;14685;50.618;7.024;2023-03-01T08:31:20;4.10;99.90
27164;DHT22;14685;50.618;7.024;2023-03-01T08:33:49;4.10;99.90
27164;DHT22;14685;50.618;7.024;2023-03-01T08:36:22;4.10;99.90
27164;DHT22;14685;50.618;7.024;2023-03-01T08:38:50;4.20;99.90
27164;DHT22;14685;50.618;7.024;2023-03-01T08:41:17;4.30;99.90
27164;DHT22;14685;50.618;7.024;2023-03-01T08:43:44;4.40;99.90
27164;DHT22;14685;50.618;7.024;2023-03-01T08:46:13;4.60;99.90
27164;DHT22;14685;50.618;7.024;2023-03-01T08:48:41;4.80;99.90
27164;DHT22;14685;50.618;7.024;2023-03-01T08:51:16;4.90;99.90
27164;DHT22;14685;50.618;7.024;2023-03-01T08:53:44;5.00;99.90
27164;DHT22;14685;50.618;7.024;2023-03-01T08:56:12;4.90;99.90
27164;DHT22;14685;50.618;7.024;2023-03-01T08:58:39;5.00;99.90
27164;DHT22;14685;50.618;7.024;2023-03-01T09:01:11;5.10;99.90
27164;DHT22;14685;50.618;7.024;2023-03-01T09:03:38;5.20;99.90
27164;DHT22;14685;50.618;7.024;2023-03-01T09:06:06;5.30;99.90
27164;DHT22;14685;50.618;7.024;2023-03-01T09:08:38;5.20;99.90
27164;DHT22;14685;50.618;7.024;2023-03-01T09:11:08;5.20;99.90
27164;DHT22;14685;50.618;7.024;2023-03-01T09:13:39;5.10;99.90
27164;DHT22;14685;50.618;7.024;2023-03-01T09:16:12;5.10;99.90
27164;DHT22;14685;50.618;7.024;2023-03-01T09:18:40;5.20;99.90
27164;DHT22;14685;50.618;7.024;2023-03-01T09:21:11;5.30;99.90
27164;DHT22;14685;50.618;7.024;2023-03-01T09:23:42;5.40;99.90
27164;DHT22;14685;50.618;7.024;2023-03-01T09:26:14;5.50;99.90
27164;DHT22;14685;50.618;7.024;2023-03-01T09:28:43;5.60;99.90
27164;DHT22;14685;50.618;7.024;2023-03-01T09:31:11;5.80;99.90
27164;DHT22;14685;50.618;7.024;2023-03-01T09:33:42;5.90;99.90
27164;DHT22;14685;50.618;7.024;2023-03-01T09:36:17;6.10;99.90
27164;DHT22;14685;50.618;7.024;2023-03-01T09:38:45;6.20;99.90
27164;DHT22;14685;50.618;7.024;2023-03-01T09:46:53;6.30;99.90
27164;DHT22;14685;50.618;7.024;2023-03-01T09:49:26;6.40;99.90
27164;DHT22;14685;50.618;7.024;2023-03-01T09:52:36;6.50;99.90
27164;DHT22;14685;50.618;7.024;2023-03-01T09:55:14;6.50;99.90
27164;DHT22;14685;50.618;7.024;2023-03-01T09:57:57;6.60;99.90
27164;DHT22;14685;50.618;7.024;2023-03-01T10:10:58;7.00;99.90
27164;DHT22;14685;50.618;7.024;2023-03-01T10:13:42;7.00;99.90
27164;DHT22;14685;50.618;7.024;2023-03-01T10:16:16;6.80;99.90
27164;DHT22;14685;50.618;7.024;2023-03-01T10:18:47;6.70;99.90
27164;DHT22;14685;50.618;7.024;2023-03-01T10:21:19;6.70;99.90
27164;DHT22;14685;50.618;7.024;2023-03-01T10:23:50;6.70;99.90
27164;DHT22;14685;50.618;7.024;2023-03-01T10:26:39;6.60;99.90
27164;DHT22;14685;50.618;7.024;2023-03-01T10:29:09;6.50;99.90
27164;DHT22;14685;50.618;7.024;2023-03-01T10:34:20;6.70;99.90
27164;DHT22;14685;50.618;7.024;2023-03-01T10:36:50;6.70;99.90
27164;DHT22;14685;50.618;7.024;2023-03-01T10:39:23;6.80;99.90
27164;DHT22;14685;50.618;7.024;2023-03-01T10:41:55;6.70;99.90
27164;DHT22;14685;50.618;7.024;2023-03-01T10:44:51;6.80;99.90
27164;DHT22;14685;50.618;7.024;2023-03-01T10:47:27;6.80;99.90
27164;DHT22;14685;50.618;7.024;2023-03-01T10:50:03;6.90;99.90
27164;DHT22;14685;50.618;7.024;2023-03-01T10:52:37;7.00;99.90
27164;DHT22;14685;50.618;7.024;2023-03-01T10:57:40;7.10;99.90
27164;DHT22;14685;50.618;7.024;2023-03-01T11:00:20;7.10;99.90
27164;DHT22;14685;50.618;7.024;2023-03-01T11:03:04;7.30;99.90
27164;DHT22;14685;50.618;7.024;2023-03-01T11:05:36;7.30;99.90
27164;DHT22;14685;50.618;7.024;2023-03-01T11:08:03;7.40;99.90
27164;DHT22;14685;50.618;7.024;2023-03-01T11:10:35;7.40;99.90
27164;DHT22;14685;50.618;7.024;2023-03-01T11:13:08;7.30;99.90
27164;DHT22;14685;50.618;7.024;2023-03-01T11:15:41;7.30;99.90
27164;DHT22;14685;50.618;7.024;2023-03-01T11:18:22;7.30;99.90
27164;DHT22;14685;50.618;7.024;2023-03-01T11:21:07;7.50;99.90
27164;DHT22;14685;50.618;7.024;2023-03-01T11:23:37;7.50;99.90
27164;DHT22;14685;50.618;7.024;2023-03-01T11:26:08;7.60;99.90
27164;DHT22;14685;50.618;7.024;2023-03-01T11:28:40;7.70;99.90
27164;DHT22;14685;50.618;7.024;2023-03-01T11:31:09;7.80;99.90
27164;DHT22;14685;50.618;7.024;2023-03-01T11:33:48;7.90;99.90
27164;DHT22;14685;50.618;7.024;2023-03-01T11:36:35;7.90;99.90
27164;DHT22;14685;50.618;7.024;2023-03-01T11:39:20;7.90;99.90
27164;DHT22;14685;50.618;7.024;2023-03-01T11:42:02;8.00;99.90
27164;DHT22;14685;50.618;7.024;2023-03-01T11:44:47;8.00;99.90
27164;DHT22;14685;50.618;7.024;2023-03-01T11:47:21;8.10;99.90
27164;DHT22;14685;50.618;7.024;2023-03-01T11:50:42;8.10;99.90
27164;DHT22;14685;50.618;7.024;2023-03-01T12:01:36;8.00;99.90
27164;DHT22;14685;50.618;7.024;2023-03-01T12:21:47;8.00;99.90
27164;DHT22;14685;50.618;7.024;2023-03-01T12:41:06;8.00;99.90
27164;DHT22;14685;50.618;7.024;2023-03-01T12:49:54;7.90;99.90
27164;DHT22;14685;50.618;7.024;2023-03-01T12:52:38;8.00;99.90
27164;DHT22;14685;50.618;7.024;2023-03-01T12:58:08;8.00;99.90
27164;DHT22;14685;50.618;7.024;2023-03-01T13:03:59;8.10;99.90
27164;DHT22;14685;50.618;7.024;2023-03-01T13:06:36;8.10;99.90
27164;DHT22;14685;50.618;7.024;2023-03-01T13:09:37;8.10;99.90
27164;DHT22;14685;50.618;7.024;2023-03-01T13:17:59;8.20;99.90
27164;DHT22;14685;50.618;7.024;2023-03-01T13:20:34;8.10;99.90
27164;DHT22;14685;50.618;7.024;2023-03-01T13:31:08;8.30;99.90
27164;DHT22;14685;50.618;7.024;2023-03-01T13:33:46;8.30;99.90
27164;DHT22;14685;50.618;7.024;2023-03-01T13:38:58;8.40;99.90
27164;DHT22;14685;50.618;7.024;2023-03-01T13:47:16;8.50;99.90
27164;DHT22;14685;50.618;7.024;2023-03-01T13:49:55;8.70;99.90
27164;DHT22;14685;50.618;7.024;2023-03-01T13:52:39;8.60;99.90
27164;DHT22;14685;50.618;7.024;2023-03-01T13:58:02;8.70;99.90
27164;DHT22;14685;50.618;7.024;2023-03-01T14:00:38;8.70;99.90
27164;DHT22;14685;50.618;7.024;2023-03-01T14:05:38;8.80;99.90
27164;DHT22;14685;50.618;7.024;2023-03-01T14:08:28;8.80;99.90
27164;DHT22;14685;50.618;7.024;2023-03-01T14:14:13;8.80;99.90
27164;DHT22;14685;50.618;7.024;2023-03-01T14:19:29;8.80;99.90
27164;DHT22;14685;50.618;7.024;2023-03-01T14:22:17;8.80;99.50
27164;DHT22;14685;50.618;7.024;2023-03-01T14:27:37;8.80;99.90
27164;DHT22;14685;50.618;7.024;2023-03-01T14:30:21;8.90;99.90
27164;DHT22;14685;50.618;7.024;2023-03-01T14:32:57;9.00;99.90
27164;DHT22;14685;50.618;7.024;2023-03-01T14:35:31;9.00;99.90
27164;DHT22;14685;50.618;7.024;2023-03-01T14:37:59;8.90;99.90
27164;DHT22;14685;50.618;7.024;2023-03-01T14:42:54;9.00;99.90
27164;DHT22;14685;50.618;7.024;2023-03-01T14:45:27;9.00;99.90
27164;DHT22;14685;50.618;7.024;2023-03-01T14:47:55;9.00;99.90
27164;DHT22;14685;50.618;7.024;2023-03-01T14:50:28;9.00;99.70
27164;DHT22;14685;50.618;7.024;2023-03-01T14:52:59;9.00;99.60
27164;DHT22;14685;50.618;7.024;2023-03-01T14:55:29;9.00;99.30
27164;DHT22;14685;50.618;7.024;2023-03-01T14:57:57;9.00;98.90
27164;DHT22;14685;50.618;7.024;2023-03-01T15:00:30;9.00;98.50
27164;DHT22;14685;50.618;7.024;2023-03-01T15:03:47;9.00;98.10
27164;DHT22;14685;50.618;7.024;2023-03-01T15:05:48;9.00;98.60
27164;DHT22;14685;50.618;7.024;2023-03-01T15:08:19;9.00;98.30
27164;DHT22;14685;50.618;7.024;2023-03-01T15:13:34;9.10;97.70
27164;DHT22;14685;50.618;7.024;2023-03-01T15:16:07;9.00;97.20
27164;DHT22;14685;50.618;7.024;2023-03-01T15:18:36;9.00;97.00
27164;DHT22;14685;50.618;7.024;2023-03-01T15:23:55;9.10;97.10
27164;DHT22;14685;50.618;7.024;2023-03-01T15:26:37;9.10;97.20
27164;DHT22;14685;50.618;7.024;2023-03-01T15:29:15;9.20;97.10
27164;DHT22;14685;50.618;7.024;2023-03-01T15:32:03;9.20;97.10
27164;DHT22;14685;50.618;7.024;2023-03-01T15:34:35;9.20;96.80
27164;DHT22;14685;50.618;7.024;2023-03-01T15:37:06;9.20;96.30
27164;DHT22;14685;50.618;7.024;2023-03-01T15:39:53;9.20;96.30
27164;DHT22;14685;50.618;7.024;2023-03-01T15:47:58;9.20;95.80
27164;DHT22;14685;50.618;7.024;2023-03-01T15:50:31;9.30;95.20
27164;DHT22;14685;50.618;7.024;2023-03-01T15:53:01;9.30;96.50
27164;DHT22;14685;50.618;7.024;2023-03-01T15:55:31;9.30;95.60
27164;DHT22;14685;50.618;7.024;2023-03-01T15:58:04;9.30;95.70
27164;DHT22;14685;50.618;7.024;2023-03-01T16:00:33;9.30;95.30
27164;DHT22;14685;50.618;7.024;2023-03-01T16:03:00;9.30;95.40
27164;DHT22;14685;50.618;7.024;2023-03-01T16:05:31;9.30;96.50
27164;DHT22;14685;50.618;7.024;2023-03-01T16:07:58;9.30;97.70
27164;DHT22;14685;50.618;7.024;2023-03-01T16:10:25;9.30;98.10
27164;DHT22;14685;50.618;7.024;2023-03-01T16:12:53;9.40;99.90
27164;DHT22;14685;50.618;7.024;2023-03-01T16:15:32;9.40;99.60
27164;DHT22;14685;50.618;7.024;2023-03-01T16:18:01;9.30;99.10
27164;DHT22;14685;50.618;7.024;2023-03-01T16:20:29;9.50;99.90
27164;DHT22;14685;50.618;7.024;2023-03-01T16:23:01;9.50;99.90
27164;DHT22;14685;50.618;7.024;2023-03-01T16:25:29;9.50;99.50
27164;DHT22;14685;50.618;7.024;2023-03-01T16:27:56;9.50;99.40
27164;DHT22;14685;50.618;7.024;2023-03-01T16:30:25;9.50;99.40
27164;DHT22;14685;50.618;7.024;2023-03-01T16:32:52;9.50;99.60
27164;DHT22;14685;50.618;7.024;2023-03-01T16:35:21;9.50;99.50
27164;DHT22;14685;50.618;7.024;2023-03-01T16:37:48;9.50;99.40
27164;DHT22;14685;50.618;7.024;2023-03-01T16:40:18;9.50;99.60
27164;DHT22;14685;50.618;7.024;2023-03-01T16:42:49;9.50;99.50
27164;DHT22;14685;50.618;7.024;2023-03-01T16:45:18;9.40;99.30
27164;DHT22;14685;50.618;7.024;2023-03-01T16:47:51;9.50;99.40
27164;DHT22;14685;50.618;7.024;2023-03-01T16:50:21;9.50;99.50
27164;DHT22;14685;50.618;7.024;2023-03-01T16:52:49;9.50;99.40
27164;DHT22;14685;50.618;7.024;2023-03-01T16:55:28;9.40;99.60
27164;DHT22;14685;50.618;7.024;2023-03-01T16:57:57;9.40;99.20
27164;DHT22;14685;50.618;7.024;2023-03-01T17:00:24;9.40;99.40
27164;DHT22;14685;50.618;7.024;2023-03-01T17:02:51;9.40;99.60
27164;DHT22;14685;50.618;7.024;2023-03-01T17:05:19;9.40;99.90
27164;DHT22;14685;50.618;7.024;2023-03-01T17:07:48;9.40;99.90
27164;DHT22;14685;50.618;7.024;2023-03-01T17:10:15;9.40;99.90
27164;DHT22;14685;50.618;7.024;2023-03-01T17:12:42;9.30;99.90
27164;DHT22;14685;50.618;7.024;2023-03-01T17:15:10;9.40;99.90
27164;DHT22;14685;50.618;7.024;2023-03-01T17:17:38;9.30;99.90
27164;DHT22;14685;50.618;7.024;2023-03-01T17:20:05;9.30;99.90
27164;DHT22;14685;50.618;7.024;2023-03-01T17:22:33;9.30;99.90
27164;DHT22;14685;50.618;7.024;2023-03-01T17:24:59;9.30;99.90
27164;DHT22;14685;50.618;7.024;2023-03-01T17:27:26;9.30;99.90
27164;DHT22;14685;50.618;7.024;2023-03-01T17:29:53;9.30;99.90
27164;DHT22;14685;50.618;7.024;2023-03-01T17:32:20;9.40;99.90
27164;DHT22;14685;50.618;7.024;2023-03-01T17:34:47;9.30;99.90
27164;DHT22;14685;50.618;7.024;2023-03-01T17:37:14;9.30;99.90
27164;DHT22;14685;50.618;7.024;2023-03-01T17:39:41;9.30;99.90
27164;DHT22;14685;50.618;7.024;2023-03-01T17:42:08;9.30;99.90
27164;DHT22;14685;50.618;7.024;2023-03-01T17:44:35;9.30;99.90
27164;DHT22;14685;50.618;7.024;2023-03-01T17:47:03;9.30;99.90
27164;DHT22;14685;50.618;7.024;2023-03-01T17:49:30;9.30;99.90
27164;DHT22;14685;50.618;7.024;2023-03-01T17:51:58;9.30;99.90
27164;DHT22;14685;50.618;7.024;2023-03-01T17:54:25;9.30;99.90
27164;DHT22;14685;50.618;7.024;2023-03-01T17:56:52;9.30;99.90
27164;DHT22;14685;50.618;7.024;2023-03-01T17:59:19;9.30;99.90
27164;DHT22;14685;50.618;7.024;2023-03-01T18:01:46;9.30;99.90
27164;DHT22;14685;50.618;7.024;2023-03-01T18:04:13;9.30;99.90
27164;DHT22;14685;50.618;7.024;2023-03-01T18:06:40;9.30;99.90
27164;DHT22;14685;50.618;7.024;2023-03-01T18:09:07;9.30;99.90
27164;DHT22;14685;50.618;7.024;2023-03-01T18:11:37;9.20;99.90
27164;DHT22;14685;50.618;7.024;2023-03-01T18:14:28;9.20;99.90
27164;DHT22;14685;50.618;7.024;2023-03-01T18:17:00;9.00;99.90
27164;DHT22;14685;50.618;7.024;2023-03-01T18:19:32;9.00;99.90
27164;DHT22;14685;50.618;7.024;2023-03-01T18:21:59;8.90;99.90
27164;DHT22;14685;50.618;7.024;2023-03-01T18:24:27;8.90;99.90
27164;DHT22;14685;50.618;7.024;2023-03-01T18:26:54;8.80;99.90
27164;DHT22;14685;50.618;7.024;2023-03-01T18:29:21;8.80;99.90